Mexican Bay — 9HA3565 — position and weather

sailwx.info

Track history (hours):
 
Tides and Currents Weather Stations Pressure Air Temp Water Temp Dewpoint Dewpoint Depression Visibility Wind Speed Wind Dir Waves Ship Positions

Mexican Bay

Last reported at 2018-Feb-15 21:52 UTC. Time now 2018-Feb-19 01:54 UTC.
Position N 35°58' W 005°35'.

Length 145 m; draft 5.6 m.

Type: Cargo ship. MMSI: 229738000.

Date/timePositionNaut miles runAvg speedWind from/ knotsBaromVisibWave heightAir tempDewpointWater temp
2018-Feb-15 21:52N 35°58' W 005°35'410.9
2018-Feb-15 21:31N 35°59' W 005°30'510.0
2018-Feb-15 21:01N 36°02' W 005°25'5 8.9
2018-Feb-15 20:29N 36°06' W 005°25'0 0.5
2018-Feb-15 19:58N 36°06' W 005°25'0 0.0
2018-Feb-15 19:28N 36°06' W 005°25'0 0.1
2018-Feb-15 18:52N 36°06' W 005°25'0 0.1
2018-Feb-15 18:04N 36°06' W 005°25'0 0.4
2018-Feb-15 17:50N 36°06' W 005°25'1 3.8
2018-Feb-15 17:30N 36°05' W 005°23'3 5.5
2018-Feb-15 17:00N 36°08' W 005°23'1 0.1
2018-Feb-15 06:20N 36°08' W 005°22'0 0.0
2018-Feb-15 05:59N 36°08' W 005°22'0 0.0
2018-Feb-15 05:20N 36°08' W 005°22'0 0.1
2018-Feb-15 04:53N 36°08' W 005°22'0 0.0
2018-Feb-15 04:26N 36°08' W 005°22'0 0.0
2018-Feb-15 03:59N 36°08' W 005°22'0 0.0
2018-Feb-15 03:28N 36°08' W 005°22'0 0.4
2018-Feb-15 03:00N 36°09' W 005°22'0 0.2
2018-Feb-15 02:28N 36°09' W 005°22'0 0.0
2018-Feb-15 02:00N 36°09' W 005°22'0 0.1
2018-Feb-15 01:30N 36°08' W 005°22'0 0.0
2018-Feb-15 00:56N 36°08' W 005°22'0 0.0
2018-Feb-15 00:30N 36°09' W 005°22'0 0.1
2018-Feb-14 23:59N 36°08' W 005°22'2 3.7
2018-Feb-14 23:30N 36°07' W 005°23'3 5.7
2018-Feb-14 23:00N 36°05' W 005°20'510.1
2018-Feb-14 22:30N 36°07' W 005°14'  
2018-Feb-11 15:20N 36°33' E 014°03'616.2
2018-Feb-11 14:56N 36°31' E 014°11'1116.3
2018-Feb-11 14:16N 36°27' E 014°23'516.1
2018-Feb-11 13:59N 36°26' E 014°29'815.9
2018-Feb-11 13:30N 36°23' E 014°38'  
Track history (hours):
 
Tides and Currents Weather Stations Pressure Air Temp Water Temp Dewpoint Dewpoint Depression Visibility Wind Speed Wind Dir Waves Ship Positions

Mexican Bay

Last reported at 2018-Feb-15 21:52 UTC. Time now 2018-Feb-19 01:54 UTC.
Position N 35°58' W 005°35'.

Length 145 m; draft 5.6 m.

Type: Cargo ship. MMSI: 229738000.

Date/timePositionNaut miles runAvg speedWind from/ knotsBaromVisibWave heightAir tempDewpointWater temp
2018-Feb-15 21:52N 35°58' W 005°35'410.9
2018-Feb-15 21:31N 35°59' W 005°30'510.0
2018-Feb-15 21:01N 36°02' W 005°25'5 8.9
2018-Feb-15 20:29N 36°06' W 005°25'0 0.5
2018-Feb-15 19:58N 36°06' W 005°25'0 0.0
2018-Feb-15 19:28N 36°06' W 005°25'0 0.1
2018-Feb-15 18:52N 36°06' W 005°25'0 0.1
2018-Feb-15 18:04N 36°06' W 005°25'0 0.4
2018-Feb-15 17:50N 36°06' W 005°25'1 3.8
2018-Feb-15 17:30N 36°05' W 005°23'3 5.5
2018-Feb-15 17:00N 36°08' W 005°23'1 0.1
2018-Feb-15 06:20N 36°08' W 005°22'0 0.0
2018-Feb-15 05:59N 36°08' W 005°22'0 0.0
2018-Feb-15 05:20N 36°08' W 005°22'0 0.1
2018-Feb-15 04:53N 36°08' W 005°22'0 0.0
2018-Feb-15 04:26N 36°08' W 005°22'0 0.0
2018-Feb-15 03:59N 36°08' W 005°22'0 0.0
2018-Feb-15 03:28N 36°08' W 005°22'0 0.4
2018-Feb-15 03:00N 36°09' W 005°22'0 0.2
2018-Feb-15 02:28N 36°09' W 005°22'0 0.0
2018-Feb-15 02:00N 36°09' W 005°22'0 0.1
2018-Feb-15 01:30N 36°08' W 005°22'0 0.0
2018-Feb-15 00:56N 36°08' W 005°22'0 0.0
2018-Feb-15 00:30N 36°09' W 005°22'0 0.1
2018-Feb-14 23:59N 36°08' W 005°22'2 3.7
2018-Feb-14 23:30N 36°07' W 005°23'3 5.7
2018-Feb-14 23:00N 36°05' W 005°20'510.1
2018-Feb-14 22:30N 36°07' W 005°14'  
2018-Feb-11 15:20N 36°33' E 014°03'616.2
2018-Feb-11 14:56N 36°31' E 014°11'1116.3
2018-Feb-11 14:16N 36°27' E 014°23'516.1
2018-Feb-11 13:59N 36°26' E 014°29'815.9
2018-Feb-11 13:30N 36°23' E 014°38'  

Dump ship's entire track history